Language selection

Features

My Weather Profile Weather Topics  | 

Southeastern Grand Banks: Past 24 Hour Conditions

 

Banquereau - 44139

05:00 PM AST 15 December 2019Buoy position: 44.27N 57.08W
Disclaimer

This table is a summary of hourly weather conditions for the past 24 hours.
Please note that these observations might not always be representative of weather conditions over their associated marine area.

Date / Time
(AST)
Wind(knots) Wave height(m) Wave period(s) Pressure(kPa) Air tempC) Water tempC)
15 December 2019
17:00 W 25 gust 33 5.6 11.0 99.5 10 8
16:00 W 17 gust 22 5.1 11.0 99.5 10 8
15:00 W 19 gust 25 4.9 11.0 99.4 11 8
14:00 SSW 22 gust 25 5.0 12.0 99.3 12 8
13:00 SW 19 gust 23 4.4 11.0 99.5 12 8
12:00 SSW 13 gust 17 4.8 11.0 99.6 11 8
11:00 WSW 13 gust 17 4.6 11.0 99.8 12 9
10:00 SSW 17 gust 22 4.9 11.0 99.9 12 9
9:00 SSW 23 gust 29 4.7 11.0 100.0 13 9
8:00 SSW 23 gust 29 4.7 11.0 100.2 13 9
7:00 SSW 22 gust 27 4.4 11.0 100.3 13 9
6:00 SSW 22 gust 27 4.5 11.0 100.4 13 9
5:00 SSW 22 gust 27 5.0 12.0 100.5 13 9
4:00 SSW 19 gust 23 4.9 11.0 100.6 12 9
3:00 SSW 22 gust 25 4.8 10.0 100.8 12 9
2:00 SSW 19 gust 23 4.4 11.0 100.9 12 8
1:00 SSW 17 gust 19 4.7 11.0 101.0 12 8
0:00 SSW 17 gust 22 4.6 10.0 101.1 11 8
14 December 2019
23:00 SSW 19 gust 25 4.6 10.0 101.3 12 8
22:00 SSW 19 gust 25 4.6 10.0 101.4 11 8
21:00 S 25 gust 29 4.6 10.0 101.5 10 8
20:00 S 27 gust 33 4.3 8.0 101.7 10 9
19:00 S 29 gust 35 4.3 8.0 101.8 10 9
18:00 SSE 29 gust 37 3.9 8.0 102.0 10 9
17:00 SSE 29 gust 35 3.4 7.0 102.2 9 9

Zoom-in to make a selection

Map of Atlantic - Newfoundland marine weather areas Banquereau - 44139 Blanc-Sablon Airport Cap Whittle Chevery Natashquan Airport Heath Point Îles de la Madeleine Airport Miscou Island Eskasoni (First Nations) Grand Étang Ingonish Beach North Mountain St.Paul Island J.A. Douglas McCurdy Sydney Airport Charlottetown Airport East Point North Cape Argentia Bonavista Burgeo Cape Race Corner Brook Daniel's Harbour Englee Ferolle Point La Scie Port aux Basques Rocky Harbour Sagona Island St. Anthony Airport St. John's Int'l Airport St. Lawrence Stephenville Airport Twillingate Winterland Branch Hill Wreckhouse Grates Cove Pool's Island Marticot Island Long Pond Cartwright Airport Mary's Harbour
Legend:
buoy Buoy
land station Land Station

Atlantic - Newfoundland Area

Another Region

What we are doing

Date modified: